createdAt,value
2019-04-01T00:00:36.448Z,0
2019-04-01T00:01:46.562Z,0
2019-04-01T00:02:56.667Z,0
2019-04-01T00:04:06.789Z,0
2019-04-01T00:05:16.976Z,0
2019-04-01T00:06:27.120Z,0
2019-04-01T00:07:37.280Z,0
2019-04-01T00:08:47.192Z,0
2019-04-01T00:09:57.513Z,0
2019-04-01T00:11:07.633Z,0
2019-04-01T00:12:17.738Z,0
2019-04-01T00:13:27.905Z,0
2019-04-01T00:14:38.185Z,0
2019-04-01T00:15:48.279Z,0
2019-04-01T00:16:58.132Z,0
2019-04-01T00:18:08.225Z,0
2019-04-01T00:19:18.344Z,0
2019-04-01T00:20:28.480Z,0
2019-04-01T00:21:38.586Z,0
2019-04-01T00:22:52.865Z,0
2019-04-01T00:24:03.288Z,0
2019-04-01T00:25:13.399Z,0
2019-04-01T00:26:23.512Z,0
2019-04-01T00:27:33.616Z,0
2019-04-01T00:28:43.748Z,0
2019-04-01T00:29:53.873Z,0
2019-04-01T00:31:03.974Z,0
2019-04-01T00:32:14.180Z,0
2019-04-01T00:33:24.301Z,0
2019-04-01T00:34:34.481Z,0
2019-04-01T00:35:44.701Z,0
2019-04-01T00:36:54.812Z,0
2019-04-01T00:38:05.003Z,0
2019-04-01T00:39:15.096Z,0
2019-04-01T00:40:25.189Z,0
2019-04-01T00:41:35.308Z,0
2019-04-01T00:42:45.154Z,0
2019-04-01T00:43:55.305Z,0
2019-04-01T00:45:05.193Z,0
2019-04-01T00:46:15.302Z,0
2019-04-01T00:47:25.408Z,0
2019-04-01T00:48:35.502Z,0
2019-04-01T00:49:45.622Z,0
2019-04-01T00:50:55.757Z,0
2019-04-01T00:52:05.881Z,0
2019-04-01T00:53:17.929Z,0
2019-04-01T00:54:28.175Z,0
2019-04-01T00:55:38.283Z,0
2019-04-01T00:56:48.415Z,0
2019-04-01T00:57:58.322Z,0
2019-04-01T00:59:08.420Z,0
2019-04-01T01:00:18.269Z,0
2019-04-01T01:01:28.389Z,0
2019-04-01T01:02:38.255Z,0
2019-04-01T01:03:48.379Z,0
2019-04-01T01:04:58.496Z,0
2019-04-01T01:06:08.607Z,0
2019-04-01T01:07:18.381Z,0
2019-04-01T01:08:28.467Z,0
2019-04-01T01:09:38.637Z,0
2019-04-01T01:10:49.062Z,0
2019-04-01T01:11:58.659Z,0
2019-04-01T01:13:08.772Z,0
2019-04-01T01:14:18.908Z,0
2019-04-01T01:15:29.052Z,0
2019-04-01T01:16:39.174Z,0
2019-04-01T01:17:49.299Z,0
2019-04-01T01:18:59.396Z,0
2019-04-01T01:20:09.511Z,0
2019-04-01T01:21:19.365Z,0
2019-04-01T01:22:29.451Z,0
2019-04-01T01:23:39.538Z,0
2019-04-01T01:24:49.676Z,0
2019-04-01T01:25:59.781Z,0
2019-04-01T01:27:09.896Z,0
2019-04-01T01:28:20.002Z,0
2019-04-01T01:29:30.110Z,0
2019-04-01T01:30:40.206Z,0
2019-04-01T01:31:50.317Z,0
2019-04-01T01:33:00.417Z,0
2019-04-01T01:34:10.512Z,0
2019-04-01T01:35:20.640Z,0
2019-04-01T01:36:30.733Z,0
2019-04-01T01:37:40.842Z,0
2019-04-01T01:38:50.964Z,0
2019-04-01T01:40:01.070Z,0
2019-04-01T01:41:11.181Z,0
2019-04-01T01:42:21.499Z,0
2019-04-01T01:43:31.591Z,0
2019-04-01T01:44:41.691Z,0
2019-04-01T01:45:51.794Z,0
2019-04-01T01:47:01.888Z,0
2019-04-01T01:48:11.990Z,0
2019-04-01T01:49:22.169Z,0
2019-04-01T01:50:32.269Z,0
2019-04-01T01:51:42.366Z,0
2019-04-01T01:52:52.466Z,0
2019-04-01T01:54:02.600Z,0
2019-04-01T01:55:12.703Z,0
2019-04-01T01:56:22.540Z,0
2019-04-01T01:57:32.639Z,0
2019-04-01T01:58:42.953Z,0
2019-04-01T01:59:53.054Z,0
2019-04-01T02:01:03.162Z,0
2019-04-01T02:02:13.264Z,0
2019-04-01T02:03:23.383Z,0
2019-04-01T02:04:33.513Z,0
2019-04-01T02:05:43.624Z,0
2019-04-01T02:06:53.734Z,0
2019-04-01T02:08:03.841Z,0
2019-04-01T02:09:13.943Z,0
2019-04-01T02:10:24.040Z,0
2019-04-01T02:11:34.369Z,0
2019-04-01T02:12:44.472Z,0
2019-04-01T02:13:54.562Z,0
2019-04-01T02:15:04.679Z,0
2019-04-01T02:16:14.797Z,0
2019-04-01T02:17:24.929Z,0
2019-04-01T02:18:35.083Z,0
2019-04-01T02:19:45.188Z,0
2019-04-01T02:20:55.303Z,0
2019-04-01T02:22:05.429Z,0
2019-04-01T02:23:15.539Z,0
2019-04-01T02:24:25.649Z,0
2019-04-01T02:25:35.769Z,0
2019-04-01T02:26:45.916Z,0
2019-04-01T02:27:56.023Z,0
2019-04-01T02:29:06.869Z,0
2019-04-01T02:30:16.766Z,0
2019-04-01T02:31:26.934Z,0
2019-04-01T02:32:37.066Z,0
2019-04-01T02:33:47.219Z,0
2019-04-01T02:34:57.371Z,0
2019-04-01T02:36:07.493Z,0
2019-04-01T02:37:17.652Z,0
2019-04-01T02:38:27.960Z,0
2019-04-01T02:39:38.085Z,0
2019-04-01T02:40:48.408Z,0
2019-04-01T02:41:58.536Z,0
2019-04-01T02:43:08.643Z,0
2019-04-01T02:44:18.746Z,0
2019-04-01T02:45:28.853Z,0
2019-04-01T02:46:38.966Z,0
2019-04-01T02:47:49.086Z,0
2019-04-01T02:48:59.191Z,0
2019-04-01T02:50:09.363Z,0
2019-04-01T02:51:19.535Z,0
2019-04-01T02:52:29.658Z,0
2019-04-01T02:53:39.985Z,0
2019-04-01T02:54:50.222Z,0
2019-04-01T02:56:00.382Z,0
2019-04-01T02:57:10.541Z,0
2019-04-01T02:58:20.655Z,0
2019-04-01T02:59:30.756Z,0
2019-04-01T03:00:40.870Z,0
2019-04-01T03:01:50.977Z,0
2019-04-01T03:03:01.086Z,0
2019-04-01T03:04:11.321Z,0
2019-04-01T03:05:21.460Z,0
2019-04-01T03:06:31.573Z,0
2019-04-01T03:07:41.817Z,0
2019-04-01T03:08:51.933Z,0
2019-04-01T03:10:01.673Z,0
2019-04-01T03:11:15.612Z,0
2019-04-01T03:12:25.766Z,0
2019-04-01T03:13:35.905Z,0
2019-04-01T03:14:46.021Z,0
2019-04-01T03:15:56.143Z,0
2019-04-01T03:17:06.245Z,0
2019-04-01T03:18:16.364Z,0
2019-04-01T03:19:26.501Z,0
2019-04-01T03:20:36.745Z,0
2019-04-01T03:21:46.855Z,0
2019-04-01T03:22:56.752Z,0
2019-04-01T03:24:06.511Z,0
2019-04-01T03:25:16.641Z,0
2019-04-01T03:26:26.526Z,0
2019-04-01T03:27:36.665Z,0
2019-04-01T03:28:46.783Z,0
2019-04-01T03:29:56.926Z,0
2019-04-01T03:31:07.065Z,0
2019-04-01T03:32:17.295Z,0
2019-04-01T03:33:27.423Z,0
2019-04-01T03:34:37.622Z,0
2019-04-01T03:35:47.896Z,0
2019-04-01T03:36:58.140Z,0
2019-04-01T03:38:08.253Z,0
2019-04-01T03:39:18.398Z,0
2019-04-01T03:40:28.501Z,0
2019-04-01T03:41:38.626Z,0
2019-04-01T03:42:48.926Z,0
2019-04-01T03:43:59.073Z,0
2019-04-01T03:45:09.332Z,0
2019-04-01T03:46:19.637Z,0
2019-04-01T03:47:29.937Z,0
2019-04-01T03:48:40.055Z,0
2019-04-01T03:49:50.167Z,0
2019-04-01T03:51:00.285Z,0
2019-04-01T03:52:15.007Z,0
2019-04-01T03:53:25.192Z,0
2019-04-01T03:54:35.307Z,0
2019-04-01T03:55:45.431Z,0
2019-04-01T03:56:55.634Z,0
2019-04-01T03:58:05.794Z,0
2019-04-01T03:59:15.901Z,0
2019-04-01T04:00:26.114Z,0
2019-04-01T04:01:37.896Z,0
2019-04-01T04:02:48.020Z,0
2019-04-01T04:03:58.167Z,0
2019-04-01T04:05:08.069Z,0
2019-04-01T04:06:18.192Z,0
2019-04-01T04:07:28.295Z,0
2019-04-01T04:08:38.430Z,0
2019-04-01T04:09:48.543Z,0
2019-04-01T04:10:58.656Z,0
2019-04-01T04:12:08.780Z,0
2019-04-01T04:13:18.888Z,0
2019-04-01T04:14:29.004Z,0
2019-04-01T04:15:39.018Z,0
2019-04-01T04:16:49.147Z,0
2019-04-01T04:17:59.440Z,4
2019-04-01T04:19:09.557Z,0
2019-04-01T04:20:19.706Z,0
2019-04-01T04:21:31.308Z,4
2019-04-01T04:22:41.439Z,4
2019-04-01T04:23:51.762Z,0
2019-04-01T04:25:01.901Z,4
2019-04-01T04:26:12.047Z,8
2019-04-01T04:27:22.165Z,4
2019-04-01T04:28:32.295Z,8
2019-04-01T04:29:42.442Z,8
2019-04-01T04:30:52.332Z,12
2019-04-01T04:32:02.443Z,16
2019-04-01T04:33:12.288Z,20
2019-04-01T04:34:22.417Z,24
2019-04-01T04:35:32.015Z,28
2019-04-01T04:36:41.779Z,32
2019-04-01T04:37:51.895Z,40
2019-04-01T04:39:02.026Z,44
2019-04-01T04:40:12.121Z,52
2019-04-01T04:41:22.243Z,60
2019-04-01T04:42:32.369Z,72
2019-04-01T04:43:42.481Z,84
2019-04-01T04:44:52.581Z,96
2019-04-01T04:46:02.917Z,108
2019-04-01T04:47:12.768Z,124
2019-04-01T04:48:22.899Z,140
2019-04-01T04:49:33.003Z,156
2019-04-01T04:50:43.104Z,172
2019-04-01T04:51:53.206Z,196
2019-04-01T04:53:03.313Z,216
2019-04-01T04:54:13.433Z,236
2019-04-01T04:55:23.529Z,260
2019-04-01T04:56:33.628Z,280
2019-04-01T04:57:43.763Z,308
2019-04-01T04:58:53.862Z,336
2019-04-01T05:00:03.743Z,360
2019-04-01T05:01:13.847Z,388
2019-04-01T05:02:27.100Z,416
2019-04-01T05:03:37.282Z,448
2019-04-01T05:04:47.399Z,472
2019-04-01T05:05:57.523Z,504
2019-04-01T05:07:07.283Z,536
2019-04-01T05:08:17.407Z,564
2019-04-01T05:09:27.523Z,592
2019-04-01T05:10:37.658Z,628
2019-04-01T05:11:47.752Z,656
2019-04-01T05:12:57.891Z,688
2019-04-01T05:14:07.990Z,724
2019-04-01T05:15:18.099Z,756
2019-04-01T05:16:28.203Z,788
2019-04-01T05:17:38.317Z,820
2019-04-01T05:18:48.438Z,852
2019-04-01T05:19:58.534Z,884
2019-04-01T05:21:08.644Z,936
2019-04-01T05:22:18.794Z,1000
2019-04-01T05:23:28.900Z,1036
2019-04-01T05:24:39.005Z,1052
2019-04-01T05:25:49.104Z,1056
2019-04-01T05:26:59.222Z,1088
2019-04-01T05:28:09.563Z,1116
2019-04-01T05:29:19.671Z,1148
2019-04-01T05:30:29.786Z,1168
2019-04-01T05:31:39.891Z,1200
2019-04-01T05:32:49.998Z,1236
2019-04-01T05:34:03.066Z,1268
2019-04-01T05:35:13.186Z,1300
2019-04-01T05:36:23.294Z,1336
2019-04-01T05:37:33.085Z,1368
2019-04-01T05:38:43.185Z,1404
2019-04-01T05:39:53.249Z,1432
2019-04-01T05:41:03.347Z,1464
2019-04-01T05:42:13.225Z,1492
2019-04-01T05:43:23.338Z,1528
2019-04-01T05:44:33.454Z,1556
2019-04-01T05:45:43.554Z,1592
2019-04-01T05:46:53.654Z,1620
2019-04-01T05:48:03.759Z,1644
2019-04-01T05:49:13.868Z,1672
2019-04-01T05:50:24.010Z,1704
2019-04-01T05:51:34.142Z,1736
2019-04-01T05:52:44.247Z,1764
2019-04-01T05:53:54.400Z,1792
2019-04-01T05:55:04.496Z,1812
2019-04-01T05:56:16.796Z,1840
2019-04-01T05:57:26.894Z,1868
2019-04-01T05:58:37.005Z,1888
2019-04-01T05:59:47.110Z,1912
2019-04-01T06:00:57.225Z,1936
2019-04-01T06:02:07.355Z,1960
2019-04-01T06:03:17.456Z,1980
2019-04-01T06:04:27.578Z,2000
2019-04-01T06:05:37.749Z,2016
2019-04-01T06:06:51.308Z,2032
2019-04-01T06:08:01.412Z,2048
2019-04-01T06:09:11.518Z,2060
2019-04-01T06:10:21.658Z,2080
2019-04-01T06:11:31.754Z,2096
2019-04-01T06:12:41.496Z,2112
2019-04-01T06:13:51.609Z,2128
2019-04-01T06:15:01.724Z,2144
2019-04-01T06:16:11.831Z,2156
2019-04-01T06:17:21.572Z,2176
2019-04-01T06:18:31.689Z,2188
2019-04-01T06:19:41.863Z,2200
2019-04-01T06:20:51.991Z,2212
2019-04-01T06:22:02.096Z,2228
2019-04-01T06:23:12.306Z,2240
2019-04-01T06:24:24.637Z,2252
2019-04-01T06:25:34.923Z,2264
2019-04-01T06:26:45.039Z,2276
2019-04-01T06:27:55.148Z,2288
2019-04-01T06:29:05.320Z,2296
2019-04-01T06:30:15.434Z,2312
2019-04-01T06:31:25.545Z,2324
2019-04-01T06:32:35.663Z,2336
2019-04-01T06:33:45.845Z,2348
2019-04-01T06:35:00.446Z,2360
2019-04-01T06:36:10.585Z,2372
2019-04-01T06:37:20.844Z,2380
2019-04-01T06:38:30.969Z,2392
2019-04-01T06:39:41.116Z,2404
2019-04-01T06:40:51.217Z,2416
2019-04-01T06:42:01.323Z,2428
2019-04-01T06:43:15.026Z,2436
2019-04-01T06:44:25.152Z,2444
2019-04-01T06:45:35.252Z,2456
2019-04-01T06:46:45.357Z,2468
2019-04-01T06:47:55.275Z,2480
2019-04-01T06:49:05.464Z,2488
2019-04-01T06:50:15.578Z,2500
2019-04-01T06:51:25.675Z,2512
2019-04-01T06:52:35.801Z,2524
2019-04-01T06:53:45.886Z,2540
2019-04-01T06:54:56.010Z,2552
2019-04-01T06:56:06.123Z,2568
2019-04-01T06:57:16.289Z,2588
2019-04-01T06:58:26.394Z,2604
2019-04-01T06:59:36.505Z,2616
2019-04-01T07:00:46.652Z,2636
2019-04-01T07:01:56.765Z,2656
2019-04-01T07:03:06.859Z,2672
2019-04-01T07:04:16.969Z,2704
2019-04-01T07:05:27.078Z,2728
2019-04-01T07:06:37.171Z,2760
2019-04-01T07:07:47.376Z,2804
2019-04-01T07:08:57.478Z,2840
2019-04-01T07:10:07.548Z,2892
2019-04-01T07:11:17.711Z,2944
2019-04-01T07:12:27.892Z,3008
2019-04-01T07:13:39.941Z,3076
2019-04-01T07:14:50.281Z,3148
2019-04-01T07:16:14.289Z,3228
2019-04-01T07:17:24.990Z,3324
2019-04-01T07:18:35.175Z,3408
2019-04-01T07:19:45.281Z,3480
2019-04-01T07:20:55.411Z,3560
2019-04-01T07:22:05.519Z,3624
2019-04-01T07:23:15.643Z,3688
2019-04-01T07:24:25.745Z,3760
2019-04-01T07:25:38.946Z,3836
2019-04-01T07:26:49.051Z,3908
2019-04-01T07:27:59.167Z,3980
2019-04-01T07:29:09.288Z,4056
2019-04-01T07:30:19.422Z,4124
2019-04-01T07:31:29.589Z,4200
2019-04-01T07:32:39.703Z,4256
2019-04-01T07:33:49.817Z,4312
2019-04-01T07:34:59.927Z,4364
2019-04-01T07:36:10.049Z,4408
2019-04-01T07:37:20.193Z,4452
2019-04-01T07:38:30.309Z,4504
2019-04-01T07:39:40.414Z,4544
2019-04-01T07:40:50.588Z,4584
2019-04-01T07:42:00.701Z,4624
2019-04-01T07:43:10.827Z,4656
2019-04-01T07:44:22.837Z,4684
2019-04-01T07:45:32.935Z,4712
2019-04-01T07:46:43.063Z,4732
2019-04-01T07:47:56.545Z,4768
2019-04-01T07:49:06.751Z,4804
2019-04-01T07:50:19.661Z,4844
2019-04-01T07:51:29.906Z,4896
2019-04-01T07:52:40.037Z,4940
2019-04-01T07:53:50.136Z,4984
2019-04-01T07:55:00.401Z,5012
2019-04-01T07:56:10.651Z,5048
2019-04-01T07:57:20.764Z,5080
2019-04-01T07:58:30.870Z,5104
2019-04-01T07:59:40.976Z,5128
2019-04-01T08:00:50.738Z,5160
2019-04-01T08:02:00.843Z,5188
2019-04-01T08:03:11.158Z,5224
2019-04-01T08:04:21.269Z,5256
2019-04-01T08:05:33.407Z,5288
2019-04-01T08:06:43.268Z,5312
2019-04-01T08:07:53.408Z,5348
2019-04-01T08:09:03.516Z,5384
2019-04-01T08:10:13.635Z,5428
2019-04-01T08:11:23.786Z,5460
2019-04-01T08:12:35.320Z,5512
2019-04-01T08:13:45.426Z,5572
2019-04-01T08:14:55.533Z,5644
2019-04-01T08:16:05.401Z,5756
2019-04-01T08:17:15.529Z,5876
2019-04-01T08:18:25.684Z,6028
2019-04-01T08:19:35.791Z,6188
2019-04-01T08:20:45.649Z,6548
2019-04-01T08:21:59.506Z,9036
2019-04-01T08:23:09.622Z,19104
2019-04-01T08:24:19.742Z,30176
2019-04-01T08:25:29.876Z,33664
2019-04-01T08:26:39.992Z,35200
2019-04-01T08:27:50.099Z,36832
2019-04-01T08:29:00.286Z,36960
2019-04-01T08:30:10.465Z,37408
2019-04-01T08:31:20.858Z,37376
2019-04-01T08:32:30.990Z,39296
2019-04-01T08:33:41.170Z,38880
2019-04-01T08:34:51.498Z,40160
2019-04-01T08:36:01.627Z,40864
2019-04-01T08:37:11.801Z,42176
2019-04-01T08:38:24.556Z,42400
2019-04-01T08:39:34.673Z,42656
2019-04-01T08:41:58.558Z,42720
2019-04-01T08:43:09.504Z,44032
2019-04-01T08:44:22.183Z,45376
2019-04-01T08:45:34.296Z,45920
2019-04-01T08:46:45.730Z,45472
